Rawalpindi, Pakistan
Current Conditions -  °F | °C
As of 2:00 PM on Wednesday 26 Nov 2014 (Local Time) from OPRN Reporting Station
Haze Haze  
Wind Chill: 73°   Ceiling: Unl
Heat Index: 73°   Visibility: 1.5mi
Dew Point: 46°   Wind: 9mph
Humidity: 38%   Direction: 230°SW
Pressure: NA   Gusts: NA
Location:  33.6°N, 73.04°E
Report Text: OPRN 260900Z 23008KT 2500 HZ SKC 23/08 Q1011.4/29.86
Loading
Personal Weather Stations






























Interactive Weather Map New forecast layout! Learn more

10-Day Weather Forecast

Advertisements
Track Severe Weather on mobile